Marion, Kansas
Current Conditions -  °F | °C
As of 4:35 AM on Saturday 25 Oct 2014 (Local Time) from KEWK Reporting Station
Clear Clear  
Wind Chill: 59°   Ceiling: Unl
Heat Index: 59°   Visibility: 7mi
Dew Point: 54°   Wind: 6mph
Humidity: 82%   Direction: 200°SSW
Pressure: 30.05"   Gusts: NA
Location:  38.35°N, 97.02°W
Report Text: KEWK 250935Z AUTO 20005KT 7SM CLR 15/12 A3005 RMK AO1
Loading
Personal Weather Stations






























Interactive Weather Map
Tropical Storm Tracking
New forecast layout! Learn more

10-Day Weather Forecast

Advertisements
Track Severe Weather on mobile